< < Back
Terminal Aerodrome Forecast


Current Version              Previous Versions:   1  2  3  4  5  6  7  8  9  

Terminal Aerodrome Forecast

832
FTUS44 KBMX 271730
TAFANB
TAF
KANB 271730Z 2718/2818 19008KT P6SM SCT050 SCT250
     FM280000 14003KT P6SM BKN250=



Latest METAR

261
SAUS70 KWBC 280400 RRL
MTRANB
METAR KANB 280353Z AUTO 07004KT 10SM CLR 25/16 A3006 RMK AO2 SLP168
T02500161


USA.gov is the U.S. government's official web portal to all federal, state and local government web resources and services.